sensor_id;sensor_type;location;lat;lon;timestamp;P1;durP1;ratioP1;P2;durP2;ratioP2
69323;SDS011;56470;47.350;8.718;2024-01-30T00:00:41;14.43;;;7.33;;
69323;SDS011;56470;47.350;8.718;2024-01-30T00:03:07;14.57;;;7.03;;
69323;SDS011;56470;47.350;8.718;2024-01-30T00:05:32;13.13;;;7.13;;
69323;SDS011;56470;47.350;8.718;2024-01-30T00:07:57;13.90;;;7.00;;
69323;SDS011;56470;47.350;8.718;2024-01-30T00:10:22;13.27;;;7.57;;
69323;SDS011;56470;47.350;8.718;2024-01-30T00:12:48;12.43;;;6.50;;
69323;SDS011;56470;47.350;8.718;2024-01-30T00:15:13;19.47;;;8.77;;
69323;SDS011;56470;47.350;8.718;2024-01-30T00:17:40;12.38;;;6.50;;
69323;SDS011;56470;47.350;8.718;2024-01-30T00:20:05;12.82;;;6.80;;
69323;SDS011;56470;47.350;8.718;2024-01-30T00:22:32;15.98;;;7.70;;
69323;SDS011;56470;47.350;8.718;2024-01-30T00:24:57;11.40;;;6.10;;
69323;SDS011;56470;47.350;8.718;2024-01-30T00:27:23;12.97;;;7.23;;
69323;SDS011;56470;47.350;8.718;2024-01-30T00:29:48;14.20;;;7.10;;
69323;SDS011;56470;47.350;8.718;2024-01-30T00:32:14;13.88;;;7.88;;
69323;SDS011;56470;47.350;8.718;2024-01-30T00:34:39;11.97;;;6.33;;
69323;SDS011;56470;47.350;8.718;2024-01-30T00:37:04;12.00;;;6.53;;
69323;SDS011;56470;47.350;8.718;2024-01-30T00:39:30;12.50;;;7.10;;
69323;SDS011;56470;47.350;8.718;2024-01-30T00:41:55;13.90;;;7.93;;
69323;SDS011;56470;47.350;8.718;2024-01-30T00:44:20;13.47;;;7.43;;
69323;SDS011;56470;47.350;8.718;2024-01-30T00:46:46;13.70;;;6.63;;
69323;SDS011;56470;47.350;8.718;2024-01-30T00:49:11;14.83;;;8.03;;
69323;SDS011;56470;47.350;8.718;2024-01-30T00:51:36;14.00;;;7.40;;
69323;SDS011;56470;47.350;8.718;2024-01-30T00:54:02;23.93;;;8.47;;
69323;SDS011;56470;47.350;8.718;2024-01-30T00:56:28;22.02;;;8.40;;
69323;SDS011;56470;47.350;8.718;2024-01-30T00:58:53;14.93;;;7.87;;
69323;SDS011;56470;47.350;8.718;2024-01-30T01:01:18;21.02;;;8.38;;
69323;SDS011;56470;47.350;8.718;2024-01-30T01:03:44;26.23;;;8.77;;
69323;SDS011;56470;47.350;8.718;2024-01-30T01:06:09;16.67;;;7.47;;
69323;SDS011;56470;47.350;8.718;2024-01-30T01:08:35;16.85;;;8.32;;
69323;SDS011;56470;47.350;8.718;2024-01-30T01:11:01;16.17;;;8.33;;
69323;SDS011;56470;47.350;8.718;2024-01-30T01:13:26;16.90;;;7.33;;
69323;SDS011;56470;47.350;8.718;2024-01-30T01:15:51;16.10;;;8.13;;
69323;SDS011;56470;47.350;8.718;2024-01-30T01:18:17;17.47;;;8.20;;
69323;SDS011;56470;47.350;8.718;2024-01-30T01:20:42;14.77;;;7.27;;
69323;SDS011;56470;47.350;8.718;2024-01-30T01:23:08;18.37;;;7.83;;
69323;SDS011;56470;47.350;8.718;2024-01-30T01:25:33;16.70;;;8.43;;
69323;SDS011;56470;47.350;8.718;2024-01-30T01:27:58;15.13;;;8.73;;
69323;SDS011;56470;47.350;8.718;2024-01-30T01:30:26;16.65;;;8.05;;
69323;SDS011;56470;47.350;8.718;2024-01-30T01:32:51;16.50;;;8.20;;
69323;SDS011;56470;47.350;8.718;2024-01-30T01:35:25;19.20;;;8.75;;
69323;SDS011;56470;47.350;8.718;2024-01-30T01:37:52;16.00;;;7.80;;
69323;SDS011;56470;47.350;8.718;2024-01-30T01:40:25;16.63;;;8.05;;
69323;SDS011;56470;47.350;8.718;2024-01-30T01:42:52;17.02;;;8.40;;
69323;SDS011;56470;47.350;8.718;2024-01-30T01:45:18;17.33;;;8.43;;
69323;SDS011;56470;47.350;8.718;2024-01-30T01:47:45;18.10;;;7.93;;
69323;SDS011;56470;47.350;8.718;2024-01-30T01:50:13;20.40;;;7.90;;
69323;SDS011;56470;47.350;8.718;2024-01-30T01:52:43;16.58;;;7.97;;
69323;SDS011;56470;47.350;8.718;2024-01-30T01:55:09;15.53;;;8.07;;
69323;SDS011;56470;47.350;8.718;2024-01-30T01:57:35;14.93;;;7.00;;
69323;SDS011;56470;47.350;8.718;2024-01-30T02:00:01;13.50;;;7.60;;
69323;SDS011;56470;47.350;8.718;2024-01-30T02:02:28;13.90;;;7.75;;
69323;SDS011;56470;47.350;8.718;2024-01-30T02:04:57;16.83;;;7.75;;
69323;SDS011;56470;47.350;8.718;2024-01-30T02:07:23;14.90;;;7.10;;
69323;SDS011;56470;47.350;8.718;2024-01-30T02:09:49;13.73;;;6.72;;
69323;SDS011;56470;47.350;8.718;2024-01-30T02:12:14;17.00;;;8.47;;
69323;SDS011;56470;47.350;8.718;2024-01-30T02:14:46;16.93;;;8.67;;
69323;SDS011;56470;47.350;8.718;2024-01-30T02:17:13;13.93;;;7.00;;
69323;SDS011;56470;47.350;8.718;2024-01-30T02:19:39;14.48;;;7.78;;
69323;SDS011;56470;47.350;8.718;2024-01-30T02:22:04;14.77;;;7.78;;
69323;SDS011;56470;47.350;8.718;2024-01-30T02:24:30;17.30;;;8.05;;
69323;SDS011;56470;47.350;8.718;2024-01-30T02:26:56;13.23;;;7.13;;
69323;SDS011;56470;47.350;8.718;2024-01-30T02:29:21;14.07;;;7.40;;
69323;SDS011;56470;47.350;8.718;2024-01-30T02:31:47;13.53;;;7.40;;
69323;SDS011;56470;47.350;8.718;2024-01-30T02:34:13;19.67;;;7.30;;
69323;SDS011;56470;47.350;8.718;2024-01-30T02:36:38;20.75;;;7.72;;
69323;SDS011;56470;47.350;8.718;2024-01-30T02:39:07;12.27;;;6.37;;
69323;SDS011;56470;47.350;8.718;2024-01-30T02:41:33;11.00;;;6.10;;
69323;SDS011;56470;47.350;8.718;2024-01-30T02:43:58;17.10;;;7.67;;
69323;SDS011;56470;47.350;8.718;2024-01-30T02:46:23;13.00;;;6.67;;
69323;SDS011;56470;47.350;8.718;2024-01-30T02:48:49;10.90;;;6.20;;
69323;SDS011;56470;47.350;8.718;2024-01-30T02:51:14;14.23;;;7.27;;
69323;SDS011;56470;47.350;8.718;2024-01-30T02:53:40;13.80;;;7.50;;
69323;SDS011;56470;47.350;8.718;2024-01-30T02:56:05;11.93;;;7.03;;
69323;SDS011;56470;47.350;8.718;2024-01-30T02:58:34;17.20;;;8.40;;
69323;SDS011;56470;47.350;8.718;2024-01-30T03:01:00;11.67;;;7.20;;
69323;SDS011;56470;47.350;8.718;2024-01-30T03:03:25;11.53;;;6.23;;
69323;SDS011;56470;47.350;8.718;2024-01-30T03:05:50;12.95;;;6.57;;
69323;SDS011;56470;47.350;8.718;2024-01-30T03:08:16;12.37;;;6.73;;
69323;SDS011;56470;47.350;8.718;2024-01-30T03:10:41;10.90;;;6.03;;
69323;SDS011;56470;47.350;8.718;2024-01-30T03:13:06;9.53;;;5.97;;
69323;SDS011;56470;47.350;8.718;2024-01-30T03:15:32;11.07;;;5.97;;
69323;SDS011;56470;47.350;8.718;2024-01-30T03:17:57;14.80;;;7.00;;
69323;SDS011;56470;47.350;8.718;2024-01-30T03:20:23;10.90;;;5.70;;
69323;SDS011;56470;47.350;8.718;2024-01-30T03:22:49;13.55;;;7.20;;
69323;SDS011;56470;47.350;8.718;2024-01-30T03:25:14;10.90;;;5.83;;
69323;SDS011;56470;47.350;8.718;2024-01-30T03:27:39;12.03;;;6.30;;
69323;SDS011;56470;47.350;8.718;2024-01-30T03:30:05;10.90;;;6.63;;
69323;SDS011;56470;47.350;8.718;2024-01-30T03:32:31;11.50;;;6.38;;
69323;SDS011;56470;47.350;8.718;2024-01-30T03:34:56;11.13;;;6.00;;
69323;SDS011;56470;47.350;8.718;2024-01-30T03:37:23;11.32;;;5.88;;
69323;SDS011;56470;47.350;8.718;2024-01-30T03:39:49;11.75;;;5.90;;
69323;SDS011;56470;47.350;8.718;2024-01-30T03:42:14;10.20;;;6.27;;
69323;SDS011;56470;47.350;8.718;2024-01-30T03:44:39;10.67;;;6.60;;
69323;SDS011;56470;47.350;8.718;2024-01-30T03:47:05;11.17;;;6.30;;
69323;SDS011;56470;47.350;8.718;2024-01-30T03:49:30;10.73;;;6.53;;
69323;SDS011;56470;47.350;8.718;2024-01-30T03:51:56;10.70;;;6.67;;
69323;SDS011;56470;47.350;8.718;2024-01-30T03:54:21;9.23;;;5.40;;
69323;SDS011;56470;47.350;8.718;2024-01-30T03:56:46;9.80;;;5.47;;
69323;SDS011;56470;47.350;8.718;2024-01-30T03:59:12;10.07;;;5.83;;
69323;SDS011;56470;47.350;8.718;2024-01-30T04:01:37;10.48;;;5.70;;
69323;SDS011;56470;47.350;8.718;2024-01-30T04:04:02;9.47;;;5.73;;
69323;SDS011;56470;47.350;8.718;2024-01-30T04:06:28;9.90;;;5.90;;
69323;SDS011;56470;47.350;8.718;2024-01-30T04:08:53;10.67;;;5.93;;
69323;SDS011;56470;47.350;8.718;2024-01-30T04:11:19;10.32;;;6.20;;
69323;SDS011;56470;47.350;8.718;2024-01-30T04:13:47;11.03;;;5.77;;
69323;SDS011;56470;47.350;8.718;2024-01-30T04:16:22;11.05;;;6.32;;
69323;SDS011;56470;47.350;8.718;2024-01-30T04:18:48;11.82;;;6.47;;
69323;SDS011;56470;47.350;8.718;2024-01-30T04:21:13;9.80;;;6.17;;
69323;SDS011;56470;47.350;8.718;2024-01-30T04:23:39;9.90;;;5.77;;
69323;SDS011;56470;47.350;8.718;2024-01-30T04:26:05;9.65;;;5.57;;
69323;SDS011;56470;47.350;8.718;2024-01-30T04:28:31;11.20;;;5.90;;
69323;SDS011;56470;47.350;8.718;2024-01-30T04:30:56;11.20;;;6.50;;
69323;SDS011;56470;47.350;8.718;2024-01-30T04:33:21;11.23;;;6.17;;
69323;SDS011;56470;47.350;8.718;2024-01-30T04:35:47;10.80;;;5.90;;
69323;SDS011;56470;47.350;8.718;2024-01-30T04:38:12;9.93;;;6.03;;
69323;SDS011;56470;47.350;8.718;2024-01-30T04:40:39;11.40;;;6.97;;
69323;SDS011;56470;47.350;8.718;2024-01-30T04:43:04;12.97;;;6.53;;
69323;SDS011;56470;47.350;8.718;2024-01-30T04:45:30;12.52;;;6.20;;
69323;SDS011;56470;47.350;8.718;2024-01-30T04:47:55;9.93;;;6.47;;
69323;SDS011;56470;47.350;8.718;2024-01-30T04:50:20;9.63;;;5.90;;
69323;SDS011;56470;47.350;8.718;2024-01-30T04:52:46;10.40;;;5.53;;
69323;SDS011;56470;47.350;8.718;2024-01-30T04:55:11;11.10;;;6.27;;
69323;SDS011;56470;47.350;8.718;2024-01-30T04:57:36;10.63;;;6.17;;
69323;SDS011;56470;47.350;8.718;2024-01-30T05:00:02;10.50;;;5.78;;
69323;SDS011;56470;47.350;8.718;2024-01-30T05:02:28;10.67;;;6.30;;
69323;SDS011;56470;47.350;8.718;2024-01-30T05:04:53;10.50;;;6.50;;
69323;SDS011;56470;47.350;8.718;2024-01-30T05:07:19;9.97;;;5.57;;
69323;SDS011;56470;47.350;8.718;2024-01-30T05:09:44;8.70;;;5.43;;
69323;SDS011;56470;47.350;8.718;2024-01-30T05:12:09;17.47;;;7.80;;
69323;SDS011;56470;47.350;8.718;2024-01-30T05:14:35;15.93;;;8.30;;
69323;SDS011;56470;47.350;8.718;2024-01-30T05:17:00;11.45;;;5.57;;
69323;SDS011;56470;47.350;8.718;2024-01-30T05:19:27;9.03;;;4.73;;
69323;SDS011;56470;47.350;8.718;2024-01-30T05:21:53;8.88;;;5.22;;
69323;SDS011;56470;47.350;8.718;2024-01-30T05:24:18;17.40;;;5.50;;
69323;SDS011;56470;47.350;8.718;2024-01-30T05:26:44;10.27;;;5.33;;
69323;SDS011;56470;47.350;8.718;2024-01-30T05:29:09;11.73;;;5.80;;
69323;SDS011;56470;47.350;8.718;2024-01-30T05:31:34;12.87;;;5.80;;
69323;SDS011;56470;47.350;8.718;2024-01-30T05:34:00;11.50;;;5.25;;
69323;SDS011;56470;47.350;8.718;2024-01-30T05:36:25;7.80;;;4.37;;
69323;SDS011;56470;47.350;8.718;2024-01-30T05:38:51;11.70;;;5.67;;
69323;SDS011;56470;47.350;8.718;2024-01-30T05:41:16;8.33;;;5.27;;
69323;SDS011;56470;47.350;8.718;2024-01-30T05:43:42;10.03;;;5.53;;
69323;SDS011;56470;47.350;8.718;2024-01-30T05:46:07;9.57;;;5.93;;
69323;SDS011;56470;47.350;8.718;2024-01-30T05:48:32;9.70;;;5.50;;
69323;SDS011;56470;47.350;8.718;2024-01-30T05:51:00;10.18;;;5.55;;
69323;SDS011;56470;47.350;8.718;2024-01-30T05:53:25;11.57;;;6.00;;
69323;SDS011;56470;47.350;8.718;2024-01-30T05:55:50;12.77;;;5.90;;
69323;SDS011;56470;47.350;8.718;2024-01-30T05:58:16;12.50;;;5.95;;
69323;SDS011;56470;47.350;8.718;2024-01-30T06:00:41;12.67;;;6.17;;
69323;SDS011;56470;47.350;8.718;2024-01-30T06:03:07;13.37;;;5.40;;
69323;SDS011;56470;47.350;8.718;2024-01-30T06:08:20;10.90;;;5.93;;
69323;SDS011;56470;47.350;8.718;2024-01-30T06:10:45;11.68;;;5.97;;
69323;SDS011;56470;47.350;8.718;2024-01-30T06:13:11;9.93;;;5.30;;
69323;SDS011;56470;47.350;8.718;2024-01-30T06:15:36;12.60;;;7.33;;
69323;SDS011;56470;47.350;8.718;2024-01-30T06:18:01;10.70;;;6.80;;
69323;SDS011;56470;47.350;8.718;2024-01-30T06:20:27;14.05;;;7.78;;
69323;SDS011;56470;47.350;8.718;2024-01-30T06:22:52;10.93;;;6.07;;
69323;SDS011;56470;47.350;8.718;2024-01-30T06:25:18;12.23;;;6.53;;
69323;SDS011;56470;47.350;8.718;2024-01-30T06:27:43;11.80;;;6.50;;
69323;SDS011;56470;47.350;8.718;2024-01-30T06:30:08;11.48;;;6.25;;
69323;SDS011;56470;47.350;8.718;2024-01-30T06:32:37;11.80;;;6.63;;
69323;SDS011;56470;47.350;8.718;2024-01-30T06:35:03;12.40;;;6.85;;
69323;SDS011;56470;47.350;8.718;2024-01-30T06:37:30;12.40;;;8.18;;
69323;SDS011;56470;47.350;8.718;2024-01-30T06:39:56;15.03;;;7.50;;
69323;SDS011;56470;47.350;8.718;2024-01-30T06:42:21;13.43;;;7.27;;
69323;SDS011;56470;47.350;8.718;2024-01-30T06:44:46;17.53;;;7.70;;
69323;SDS011;56470;47.350;8.718;2024-01-30T06:47:11;12.30;;;6.87;;
69323;SDS011;56470;47.350;8.718;2024-01-30T06:49:37;12.07;;;6.40;;
69323;SDS011;56470;47.350;8.718;2024-01-30T06:52:06;13.17;;;7.10;;
69323;SDS011;56470;47.350;8.718;2024-01-30T06:54:31;16.13;;;7.05;;
69323;SDS011;56470;47.350;8.718;2024-01-30T06:56:57;16.10;;;7.28;;
69323;SDS011;56470;47.350;8.718;2024-01-30T06:59:23;15.87;;;8.00;;
69323;SDS011;56470;47.350;8.718;2024-01-30T07:01:48;21.27;;;7.17;;
69323;SDS011;56470;47.350;8.718;2024-01-30T07:04:14;17.20;;;6.82;;
69323;SDS011;56470;47.350;8.718;2024-01-30T07:06:39;16.50;;;7.70;;
69323;SDS011;56470;47.350;8.718;2024-01-30T07:09:04;14.50;;;7.20;;
69323;SDS011;56470;47.350;8.718;2024-01-30T07:11:30;13.93;;;7.77;;
69323;SDS011;56470;47.350;8.718;2024-01-30T07:13:55;17.65;;;7.38;;
69323;SDS011;56470;47.350;8.718;2024-01-30T07:16:21;16.43;;;7.27;;
69323;SDS011;56470;47.350;8.718;2024-01-30T07:18:47;13.50;;;7.75;;
69323;SDS011;56470;47.350;8.718;2024-01-30T07:21:12;14.30;;;8.17;;
69323;SDS011;56470;47.350;8.718;2024-01-30T07:23:38;12.43;;;6.37;;
69323;SDS011;56470;47.350;8.718;2024-01-30T07:26:07;12.48;;;6.72;;
69323;SDS011;56470;47.350;8.718;2024-01-30T07:28:33;12.82;;;7.03;;
69323;SDS011;56470;47.350;8.718;2024-01-30T07:30:59;11.75;;;6.32;;
69323;SDS011;56470;47.350;8.718;2024-01-30T07:33:25;12.40;;;7.10;;
69323;SDS011;56470;47.350;8.718;2024-01-30T07:35:52;12.15;;;6.82;;
69323;SDS011;56470;47.350;8.718;2024-01-30T07:38:17;12.57;;;7.27;;
69323;SDS011;56470;47.350;8.718;2024-01-30T07:40:43;11.77;;;6.40;;
69323;SDS011;56470;47.350;8.718;2024-01-30T07:43:08;13.00;;;5.90;;
69323;SDS011;56470;47.350;8.718;2024-01-30T07:45:34;15.77;;;6.87;;
69323;SDS011;56470;47.350;8.718;2024-01-30T07:47:59;11.43;;;5.90;;
69323;SDS011;56470;47.350;8.718;2024-01-30T07:50:25;12.75;;;6.85;;
69323;SDS011;56470;47.350;8.718;2024-01-30T07:52:51;12.02;;;7.28;;
69323;SDS011;56470;47.350;8.718;2024-01-30T07:55:19;10.20;;;6.20;;
69323;SDS011;56470;47.350;8.718;2024-01-30T07:57:51;12.13;;;6.45;;
69323;SDS011;56470;47.350;8.718;2024-01-30T08:00:17;11.55;;;6.95;;
69323;SDS011;56470;47.350;8.718;2024-01-30T08:02:44;10.63;;;5.95;;
69323;SDS011;56470;47.350;8.718;2024-01-30T08:05:09;11.93;;;5.93;;
69323;SDS011;56470;47.350;8.718;2024-01-30T08:07:36;12.77;;;6.47;;
69323;SDS011;56470;47.350;8.718;2024-01-30T08:10:01;15.20;;;7.10;;
69323;SDS011;56470;47.350;8.718;2024-01-30T08:12:27;13.10;;;6.78;;
69323;SDS011;56470;47.350;8.718;2024-01-30T08:14:52;10.20;;;6.53;;
69323;SDS011;56470;47.350;8.718;2024-01-30T08:17:17;11.17;;;6.40;;
69323;SDS011;56470;47.350;8.718;2024-01-30T08:19:43;13.30;;;6.50;;
69323;SDS011;56470;47.350;8.718;2024-01-30T08:22:08;9.93;;;6.33;;
69323;SDS011;56470;47.350;8.718;2024-01-30T08:24:33;11.37;;;7.20;;
69323;SDS011;56470;47.350;8.718;2024-01-30T08:26:58;12.67;;;6.60;;
69323;SDS011;56470;47.350;8.718;2024-01-30T08:29:24;11.40;;;6.50;;
69323;SDS011;56470;47.350;8.718;2024-01-30T08:31:49;11.48;;;6.57;;
69323;SDS011;56470;47.350;8.718;2024-01-30T08:34:15;11.77;;;7.37;;
69323;SDS011;56470;47.350;8.718;2024-01-30T08:36:40;12.83;;;7.27;;
69323;SDS011;56470;47.350;8.718;2024-01-30T08:39:06;12.70;;;7.00;;
69323;SDS011;56470;47.350;8.718;2024-01-30T08:41:31;13.87;;;7.50;;
69323;SDS011;56470;47.350;8.718;2024-01-30T08:43:56;11.40;;;6.38;;
69323;SDS011;56470;47.350;8.718;2024-01-30T08:46:21;13.60;;;7.47;;
69323;SDS011;56470;47.350;8.718;2024-01-30T08:48:47;12.70;;;7.30;;
69323;SDS011;56470;47.350;8.718;2024-01-30T08:51:12;12.13;;;7.20;;
69323;SDS011;56470;47.350;8.718;2024-01-30T08:53:39;11.70;;;6.77;;
69323;SDS011;56470;47.350;8.718;2024-01-30T08:56:05;12.18;;;6.97;;
69323;SDS011;56470;47.350;8.718;2024-01-30T08:58:31;13.68;;;7.70;;
69323;SDS011;56470;47.350;8.718;2024-01-30T09:00:56;13.40;;;6.40;;
69323;SDS011;56470;47.350;8.718;2024-01-30T09:03:22;11.93;;;6.87;;
69323;SDS011;56470;47.350;8.718;2024-01-30T09:05:47;14.27;;;7.80;;
69323;SDS011;56470;47.350;8.718;2024-01-30T09:08:12;12.45;;;6.30;;
69323;SDS011;56470;47.350;8.718;2024-01-30T09:10:38;11.37;;;7.70;;
69323;SDS011;56470;47.350;8.718;2024-01-30T09:13:03;12.30;;;7.47;;
69323;SDS011;56470;47.350;8.718;2024-01-30T09:15:28;13.03;;;7.77;;
69323;SDS011;56470;47.350;8.718;2024-01-30T09:17:54;12.47;;;6.57;;
69323;SDS011;56470;47.350;8.718;2024-01-30T09:20:19;13.23;;;8.27;;
69323;SDS011;56470;47.350;8.718;2024-01-30T09:22:47;11.50;;;7.35;;
69323;SDS011;56470;47.350;8.718;2024-01-30T09:25:12;12.00;;;7.50;;
69323;SDS011;56470;47.350;8.718;2024-01-30T09:27:37;11.90;;;6.63;;
69323;SDS011;56470;47.350;8.718;2024-01-30T09:30:03;10.77;;;7.20;;
69323;SDS011;56470;47.350;8.718;2024-01-30T09:32:28;12.77;;;7.97;;
69323;SDS011;56470;47.350;8.718;2024-01-30T09:34:53;12.73;;;6.53;;
69323;SDS011;56470;47.350;8.718;2024-01-30T09:37:19;12.17;;;7.30;;
69323;SDS011;56470;47.350;8.718;2024-01-30T09:39:45;11.30;;;7.00;;
69323;SDS011;56470;47.350;8.718;2024-01-30T09:45:05;11.88;;;6.63;;
69323;SDS011;56470;47.350;8.718;2024-01-30T09:47:41;9.82;;;6.63;;
69323;SDS011;56470;47.350;8.718;2024-01-30T09:50:10;11.88;;;7.25;;
69323;SDS011;56470;47.350;8.718;2024-01-30T09:52:36;10.70;;;6.50;;
69323;SDS011;56470;47.350;8.718;2024-01-30T09:55:02;9.75;;;6.55;;
69323;SDS011;56470;47.350;8.718;2024-01-30T09:57:28;11.35;;;7.63;;
69323;SDS011;56470;47.350;8.718;2024-01-30T09:59:54;10.70;;;6.20;;
69323;SDS011;56470;47.350;8.718;2024-01-30T10:02:20;10.73;;;6.77;;
69323;SDS011;56470;47.350;8.718;2024-01-30T10:04:48;13.68;;;7.18;;
69323;SDS011;56470;47.350;8.718;2024-01-30T10:07:17;15.20;;;7.63;;
69323;SDS011;56470;47.350;8.718;2024-01-30T10:09:43;21.30;;;9.98;;
69323;SDS011;56470;47.350;8.718;2024-01-30T10:12:09;14.37;;;7.50;;
69323;SDS011;56470;47.350;8.718;2024-01-30T10:14:37;11.35;;;6.47;;
69323;SDS011;56470;47.350;8.718;2024-01-30T10:17:09;12.30;;;6.70;;
69323;SDS011;56470;47.350;8.718;2024-01-30T10:19:35;11.35;;;7.05;;
69323;SDS011;56470;47.350;8.718;2024-01-30T10:22:01;10.90;;;6.50;;
69323;SDS011;56470;47.350;8.718;2024-01-30T10:24:27;10.73;;;7.17;;
69323;SDS011;56470;47.350;8.718;2024-01-30T10:26:54;10.20;;;6.18;;
69323;SDS011;56470;47.350;8.718;2024-01-30T10:29:19;10.27;;;6.72;;
69323;SDS011;56470;47.350;8.718;2024-01-30T10:31:45;11.87;;;6.30;;
69323;SDS011;56470;47.350;8.718;2024-01-30T10:34:10;12.03;;;6.70;;
69323;SDS011;56470;47.350;8.718;2024-01-30T10:36:42;10.20;;;6.23;;
69323;SDS011;56470;47.350;8.718;2024-01-30T10:39:13;9.85;;;6.20;;
69323;SDS011;56470;47.350;8.718;2024-01-30T10:41:45;9.90;;;6.22;;
69323;SDS011;56470;47.350;8.718;2024-01-30T10:44:13;11.43;;;5.90;;
69323;SDS011;56470;47.350;8.718;2024-01-30T10:46:44;10.65;;;6.30;;
69323;SDS011;56470;47.350;8.718;2024-01-30T10:49:14;12.77;;;6.90;;
69323;SDS011;56470;47.350;8.718;2024-01-30T10:51:40;12.52;;;6.93;;
69323;SDS011;56470;47.350;8.718;2024-01-30T10:54:06;10.20;;;6.57;;
69323;SDS011;56470;47.350;8.718;2024-01-30T10:56:32;10.30;;;6.68;;
69323;SDS011;56470;47.350;8.718;2024-01-30T10:58:58;13.23;;;6.90;;
69323;SDS011;56470;47.350;8.718;2024-01-30T11:01:24;10.97;;;6.00;;
69323;SDS011;56470;47.350;8.718;2024-01-30T11:03:51;11.48;;;6.78;;
69323;SDS011;56470;47.350;8.718;2024-01-30T11:06:17;14.65;;;7.28;;
69323;SDS011;56470;47.350;8.718;2024-01-30T11:08:43;12.80;;;6.93;;
69323;SDS011;56470;47.350;8.718;2024-01-30T11:11:10;12.98;;;7.25;;
69323;SDS011;56470;47.350;8.718;2024-01-30T11:13:35;11.67;;;6.50;;
69323;SDS011;56470;47.350;8.718;2024-01-30T11:16:02;11.25;;;5.95;;
69323;SDS011;56470;47.350;8.718;2024-01-30T11:18:31;10.23;;;6.40;;
69323;SDS011;56470;47.350;8.718;2024-01-30T11:20:58;10.95;;;6.47;;
69323;SDS011;56470;47.350;8.718;2024-01-30T11:23:26;9.68;;;5.93;;
69323;SDS011;56470;47.350;8.718;2024-01-30T11:25:52;10.63;;;6.53;;
69323;SDS011;56470;47.350;8.718;2024-01-30T11:28:18;11.80;;;6.20;;
69323;SDS011;56470;47.350;8.718;2024-01-30T11:30:44;12.57;;;7.13;;
69323;SDS011;56470;47.350;8.718;2024-01-30T11:33:13;11.93;;;6.32;;
69323;SDS011;56470;47.350;8.718;2024-01-30T11:35:43;16.02;;;7.60;;
69323;SDS011;56470;47.350;8.718;2024-01-30T11:38:09;13.23;;;7.63;;
69323;SDS011;56470;47.350;8.718;2024-01-30T11:40:38;10.93;;;6.43;;
69323;SDS011;56470;47.350;8.718;2024-01-30T11:43:05;15.47;;;7.80;;
69323;SDS011;56470;47.350;8.718;2024-01-30T11:45:32;14.25;;;7.72;;
69323;SDS011;56470;47.350;8.718;2024-01-30T11:47:58;14.93;;;8.68;;
69323;SDS011;56470;47.350;8.718;2024-01-30T11:50:29;13.85;;;7.90;;
69323;SDS011;56470;47.350;8.718;2024-01-30T11:52:54;12.25;;;7.38;;
69323;SDS011;56470;47.350;8.718;2024-01-30T11:55:20;11.43;;;7.27;;
69323;SDS011;56470;47.350;8.718;2024-01-30T11:57:45;14.73;;;9.13;;
69323;SDS011;56470;47.350;8.718;2024-01-30T12:00:17;15.90;;;9.20;;
69323;SDS011;56470;47.350;8.718;2024-01-30T12:02:43;13.90;;;8.20;;
69323;SDS011;56470;47.350;8.718;2024-01-30T12:05:13;13.20;;;7.10;;
69323;SDS011;56470;47.350;8.718;2024-01-30T12:07:38;12.30;;;7.60;;
69323;SDS011;56470;47.350;8.718;2024-01-30T12:10:04;12.70;;;7.37;;
69323;SDS011;56470;47.350;8.718;2024-01-30T12:12:30;12.98;;;8.25;;
69323;SDS011;56470;47.350;8.718;2024-01-30T12:14:56;12.00;;;6.20;;
69323;SDS011;56470;47.350;8.718;2024-01-30T12:17:31;11.80;;;7.10;;
69323;SDS011;56470;47.350;8.718;2024-01-30T12:20:07;10.48;;;6.68;;
69323;SDS011;56470;47.350;8.718;2024-01-30T12:22:38;10.75;;;6.78;;
69323;SDS011;56470;47.350;8.718;2024-01-30T12:25:07;10.73;;;6.90;;
69323;SDS011;56470;47.350;8.718;2024-01-30T12:27:37;11.02;;;6.57;;
69323;SDS011;56470;47.350;8.718;2024-01-30T12:30:06;11.40;;;6.78;;
69323;SDS011;56470;47.350;8.718;2024-01-30T12:32:39;10.90;;;6.35;;
69323;SDS011;56470;47.350;8.718;2024-01-30T12:35:09;11.18;;;6.72;;
69323;SDS011;56470;47.350;8.718;2024-01-30T12:37:35;11.73;;;6.67;;
69323;SDS011;56470;47.350;8.718;2024-01-30T12:40:01;12.75;;;7.03;;
69323;SDS011;56470;47.350;8.718;2024-01-30T12:42:27;9.93;;;6.60;;
69323;SDS011;56470;47.350;8.718;2024-01-30T12:44:52;11.48;;;7.10;;
69323;SDS011;56470;47.350;8.718;2024-01-30T12:47:18;12.17;;;6.93;;
69323;SDS011;56470;47.350;8.718;2024-01-30T12:49:43;10.07;;;6.30;;
69323;SDS011;56470;47.350;8.718;2024-01-30T12:52:10;11.48;;;5.97;;
69323;SDS011;56470;47.350;8.718;2024-01-30T12:54:36;11.57;;;6.13;;
69323;SDS011;56470;47.350;8.718;2024-01-30T12:57:01;10.30;;;6.13;;
69323;SDS011;56470;47.350;8.718;2024-01-30T12:59:27;11.03;;;5.87;;
69323;SDS011;56470;47.350;8.718;2024-01-30T13:01:52;9.77;;;6.10;;
69323;SDS011;56470;47.350;8.718;2024-01-30T13:04:17;11.83;;;6.47;;
69323;SDS011;56470;47.350;8.718;2024-01-30T13:06:43;10.67;;;6.53;;
69323;SDS011;56470;47.350;8.718;2024-01-30T13:09:08;9.03;;;6.17;;
69323;SDS011;56470;47.350;8.718;2024-01-30T13:11:34;13.40;;;7.30;;
69323;SDS011;56470;47.350;8.718;2024-01-30T13:13:59;10.68;;;7.05;;
69323;SDS011;56470;47.350;8.718;2024-01-30T13:16:25;9.37;;;6.27;;
69323;SDS011;56470;47.350;8.718;2024-01-30T13:18:50;10.50;;;6.73;;
69323;SDS011;56470;47.350;8.718;2024-01-30T13:21:16;9.85;;;5.63;;
69323;SDS011;56470;47.350;8.718;2024-01-30T13:23:42;10.07;;;6.20;;
69323;SDS011;56470;47.350;8.718;2024-01-30T13:26:08;9.88;;;6.05;;
69323;SDS011;56470;47.350;8.718;2024-01-30T13:28:33;10.87;;;5.43;;
69323;SDS011;56470;47.350;8.718;2024-01-30T13:30:59;8.93;;;5.57;;
69323;SDS011;56470;47.350;8.718;2024-01-30T13:33:24;11.75;;;5.88;;
69323;SDS011;56470;47.350;8.718;2024-01-30T13:35:50;10.17;;;5.40;;
69323;SDS011;56470;47.350;8.718;2024-01-30T13:38:15;12.93;;;5.67;;
69323;SDS011;56470;47.350;8.718;2024-01-30T13:40:40;9.90;;;5.57;;
69323;SDS011;56470;47.350;8.718;2024-01-30T13:43:06;10.50;;;5.70;;
69323;SDS011;56470;47.350;8.718;2024-01-30T13:45:31;13.43;;;5.70;;
69323;SDS011;56470;47.350;8.718;2024-01-30T13:47:57;10.80;;;5.23;;
69323;SDS011;56470;47.350;8.718;2024-01-30T13:50:22;8.23;;;5.03;;
69323;SDS011;56470;47.350;8.718;2024-01-30T13:52:47;8.27;;;4.73;;
69323;SDS011;56470;47.350;8.718;2024-01-30T13:55:13;8.20;;;4.50;;
69323;SDS011;56470;47.350;8.718;2024-01-30T13:57:38;11.07;;;4.73;;
69323;SDS011;56470;47.350;8.718;2024-01-30T14:00:04;7.93;;;5.00;;
69323;SDS011;56470;47.350;8.718;2024-01-30T14:02:32;7.00;;;4.10;;
69323;SDS011;56470;47.350;8.718;2024-01-30T14:04:58;7.77;;;4.40;;
69323;SDS011;56470;47.350;8.718;2024-01-30T14:07:23;7.67;;;4.83;;
69323;SDS011;56470;47.350;8.718;2024-01-30T14:09:49;9.32;;;4.60;;
69323;SDS011;56470;47.350;8.718;2024-01-30T14:12:14;8.87;;;5.27;;
69323;SDS011;56470;47.350;8.718;2024-01-30T14:14:40;9.67;;;5.60;;
69323;SDS011;56470;47.350;8.718;2024-01-30T14:17:06;10.13;;;6.57;;
69323;SDS011;56470;47.350;8.718;2024-01-30T14:19:32;8.77;;;5.53;;
69323;SDS011;56470;47.350;8.718;2024-01-30T14:22:00;8.25;;;5.50;;
69323;SDS011;56470;47.350;8.718;2024-01-30T14:24:26;8.40;;;4.77;;
69323;SDS011;56470;47.350;8.718;2024-01-30T14:26:52;9.63;;;5.77;;
69323;SDS011;56470;47.350;8.718;2024-01-30T14:29:18;11.70;;;5.13;;
69323;SDS011;56470;47.350;8.718;2024-01-30T14:31:43;9.37;;;5.23;;
69323;SDS011;56470;47.350;8.718;2024-01-30T14:34:08;8.03;;;4.77;;